Terminal Aerodrome Forecast
Issued by NWS

Home | Current Version | Previous Version | Text Only | Print | Product List | Glossary On
Versions: 1 2 3 4 5 6 7 8 9 10 11 12 13
000
FTAK31 PAJN 030500
TAFAJN
TAF
PAJN 030521Z 0306/0406 VRB03KT P6SM BKN230
     FM030900 09006KT P6SM SCT040 BKN100
     FM031500 10007KT P6SM BKN035 OVC080
     FM031800 10005KT P6SM VCSH BKN035 OVC060
     FM032000 10005KT P6SM -RA BKN030 OVC050=

USA.gov is the U.S. government's official web portal to all federal, state and local government web resources and services.